Time;durP1;ratioP1;P1;durP2;ratioP2;P2;SDS_P1;SDS_P2;PMS_P1;PMS_P2;Temp;Humidity;BMP_temperature;BMP_pressure;BME280_temperature;BME280_humidity;BME280_pressure;Samples;Min_cycle;Max_cycle;Signal;HPM_P1;HPM_P2
2022/09/29 00:01:18;;;;;;;1.00;0.77;;;14.50;58.60;;;;;;4938328;28;20496;-72
2022/09/29 00:03:46;;;;;;;0.90;0.80;;;14.50;58.60;;;;;;4938251;28;20477;-71
2022/09/29 00:06:17;;;;;;;1.20;1.00;;;14.50;58.70;;;;;;4936688;29;20475;-71
2022/09/29 00:08:47;;;;;;;0.90;0.87;;;14.50;58.60;;;;;;4931158;28;21039;-72
2022/09/29 00:11:18;;;;;;;1.90;1.10;;;14.50;58.60;;;;;;4943959;29;21053;-72
2022/09/29 00:13:47;;;;;;;1.33;1.10;;;14.50;58.70;;;;;;4946837;29;20443;-72
2022/09/29 00:16:16;;;;;;;1.00;0.90;;;14.50;58.70;;;;;;4940268;29;20498;-72
2022/09/29 00:18:45;;;;;;;1.10;0.90;;;14.50;58.60;;;;;;4933192;29;20570;-71
2022/09/29 00:21:16;;;;;;;0.93;0.90;;;14.50;58.70;;;;;;4939621;29;20793;-72
2022/09/29 00:23:46;;;;;;;1.30;1.20;;;14.50;58.60;;;;;;4963594;28;20530;-73
2022/09/29 00:26:16;;;;;;;1.20;0.90;;;14.50;58.60;;;;;;4942880;29;20527;-73
2022/09/29 00:28:48;;;;;;;2.10;1.00;;;14.50;58.70;;;;;;4945398;29;20771;-72
2022/09/29 00:31:16;;;;;;;1.30;1.00;;;14.50;58.70;;;;;;4937171;29;20894;-72
2022/09/29 00:33:46;;;;;;;1.47;0.90;;;14.50;58.70;;;;;;4938940;28;20451;-72
2022/09/29 00:36:16;;;;;;;1.80;1.10;;;14.50;58.70;;;;;;4936100;29;20474;-73
2022/09/29 00:38:47;;;;;;;1.10;0.80;;;14.50;58.60;;;;;;4922101;29;20454;-72
2022/09/29 00:41:18;;;;;;;0.93;0.83;;;14.50;58.60;;;;;;4931095;29;20484;-73
2022/09/29 00:43:56;;;;;;;1.00;0.70;;;14.50;58.60;;;;;;4916607;29;20461;-71
2022/09/29 00:46:34;;;;;;;1.30;1.10;;;14.50;59.80;;;;;;4944329;29;20463;-71
2022/09/29 00:49:08;;;;;;;1.07;0.97;;;14.50;58.60;;;;;;4938262;29;20746;-71
2022/09/29 00:51:39;;;;;;;1.50;0.80;;;14.40;58.60;;;;;;4937172;29;20484;-70
2022/09/29 00:54:10;;;;;;;1.37;1.20;;;14.40;58.60;;;;;;4948060;29;20564;-72
2022/09/29 00:56:43;;;;;;;2.33;1.20;;;14.40;58.60;;;;;;4947950;28;20476;-72
2022/09/29 00:59:17;;;;;;;1.67;1.10;;;14.40;58.60;;;;;;4930169;29;20443;-72
2022/09/29 01:01:46;;;;;;;1.57;1.43;;;14.40;58.60;;;;;;4938321;29;20567;-72
2022/09/29 01:04:19;;;;;;;1.80;0.90;;;14.40;58.60;;;;;;4940790;28;20493;-72
2022/09/29 01:06:50;;;;;;;2.40;1.67;;;14.40;58.60;;;;;;4960449;28;20537;-73
2022/09/29 01:09:24;;;;;;;1.10;1.00;;;14.40;58.60;;;;;;4940854;28;20451;-73
2022/09/29 01:11:56;;;;;;;1.50;1.33;;;14.40;58.60;;;;;;4937442;28;21026;-71
2022/09/29 01:14:27;;;;;;;1.43;1.33;;;14.40;58.60;;;;;;4936197;29;20479;-72
2022/09/29 01:16:55;;;;;;;1.83;1.17;;;14.40;58.60;;;;;;4941500;28;20498;-72
2022/09/29 01:19:35;;;;;;;1.27;1.17;;;14.40;58.60;;;;;;4933338;29;20486;-72
2022/09/29 01:22:14;;;;;;;1.33;1.10;;;14.40;58.60;;;;;;4962751;28;20537;-72
2022/09/29 01:25:11;;;;;;;0.90;0.90;;;14.40;58.60;;;;;;4940422;29;20864;-73
2022/09/29 01:28:14;;;;;;;0.90;0.90;;;14.40;58.60;;;;;;4939808;28;21037;-72
2022/09/29 01:31:02;;;;;;;1.30;1.20;;;14.40;58.60;;;;;;4953778;28;20462;-71
2022/09/29 01:33:38;;;;;;;1.73;1.40;;;14.40;58.60;;;;;;4939693;29;20462;-70
2022/09/29 01:36:17;;;;;;;1.20;1.00;;;14.40;58.60;;;;;;4943496;29;20530;-71
2022/09/29 01:38:55;;;;;;;1.10;0.93;;;14.40;58.60;;;;;;4943721;28;20438;-73
2022/09/29 01:41:33;;;;;;;1.77;0.90;;;14.40;58.60;;;;;;4937899;29;20467;-73
2022/09/29 01:44:08;;;;;;;1.53;1.30;;;14.40;58.60;;;;;;4942883;29;20447;-71
2022/09/29 01:46:43;;;;;;;1.53;1.03;;;14.40;58.60;;;;;;4921963;29;20536;-73
2022/09/29 01:49:13;;;;;;;1.97;1.00;;;14.40;58.60;;;;;;4946872;29;20447;-72
2022/09/29 01:51:48;;;;;;;1.17;0.93;;;14.30;58.50;;;;;;4933590;29;21074;-73
2022/09/29 01:54:21;;;;;;;1.73;1.00;;;14.30;58.50;;;;;;4929616;29;21026;-73
2022/09/29 01:56:53;;;;;;;1.20;1.07;;;14.30;58.50;;;;;;4944094;29;20533;-71
2022/09/29 01:59:26;;;;;;;1.30;0.90;;;14.30;58.50;;;;;;4932633;29;20805;-72
2022/09/29 02:02:02;;;;;;;1.17;1.07;;;14.40;58.60;;;;;;4947682;29;20573;-72
2022/09/29 02:04:34;;;;;;;1.33;0.93;;;14.40;58.60;;;;;;4943361;29;20435;-72
2022/09/29 02:07:07;;;;;;;2.03;1.10;;;14.40;59.70;;;;;;4922447;29;20559;-71
2022/09/29 02:09:39;;;;;;;1.10;1.00;;;14.40;58.60;;;;;;4939874;28;20476;-73
2022/09/29 02:12:10;;;;;;;1.23;0.93;;;14.30;58.50;;;;;;4926849;29;20573;-73
2022/09/29 02:14:42;;;;;;;1.07;0.90;;;14.30;58.50;;;;;;4931270;29;20444;-73
2022/09/29 02:17:18;;;;;;;2.10;1.00;;;14.30;58.50;;;;;;4934752;28;20492;-73
2022/09/29 02:19:49;;;;;;;1.20;1.10;;;14.40;58.60;;;;;;4946779;29;20501;-73
2022/09/29 02:22:18;;;;;;;1.70;1.20;;;14.40;58.60;;;;;;4937164;29;20514;-72
2022/09/29 02:24:49;;;;;;;1.87;1.37;;;14.30;58.50;;;;;;4947136;28;20444;-72
2022/09/29 02:27:17;;;;;;;1.43;1.33;;;14.30;58.50;;;;;;4934328;28;20480;-71
2022/09/29 02:29:46;;;;;;;1.30;1.10;;;14.30;58.50;;;;;;4937975;29;20527;-73
2022/09/29 02:32:16;;;;;;;0.80;0.80;;;14.30;58.60;;;;;;4992979;23;20489;-73
2022/09/29 02:34:49;;;;;;;1.77;1.30;;;14.30;58.50;;;;;;4991114;28;20545;-74
2022/09/29 02:37:53;;;;;;;1.00;0.90;;;14.30;58.50;;;;;;4973427;28;20580;-73
2022/09/29 02:40:33;;;;;;;1.23;1.10;;;14.30;58.50;;;;;;4968884;28;20470;-73
2022/09/29 02:43:15;;;;;;;2.33;1.00;;;14.30;58.50;;;;;;4965080;28;20469;-74
2022/09/29 02:45:56;;;;;;;1.80;1.13;;;14.30;58.50;;;;;;4970439;28;20682;-74
2022/09/29 02:48:43;;;;;;;2.50;1.13;;;14.30;58.50;;;;;;4967975;28;20478;-73
2022/09/29 02:51:18;;;;;;;1.40;1.00;;;14.30;58.60;;;;;;4971406;28;20532;-73
2022/09/29 02:53:59;;;;;;;1.50;1.40;;;14.30;58.50;;;;;;4964997;28;20473;-73
2022/09/29 02:56:36;;;;;;;1.20;0.90;;;14.30;58.50;;;;;;4971472;28;20529;-73
2022/09/29 02:59:10;;;;;;;2.70;1.20;;;14.30;58.50;;;;;;4949501;28;20489;-74
2022/09/29 03:01:49;;;;;;;1.10;1.00;;;14.30;58.50;;;;;;4970415;28;20874;-74
2022/09/29 03:04:20;;;;;;;1.43;1.30;;;14.30;58.50;;;;;;4969594;28;20477;-73
2022/09/29 03:06:49;;;;;;;4.50;1.30;;;14.30;58.50;;;;;;4969639;28;20490;-74
2022/09/29 03:09:18;;;;;;;1.83;0.87;;;14.30;58.50;;;;;;4969646;28;20486;-74
2022/09/29 03:11:46;;;;;;;1.60;1.10;;;14.30;58.60;;;;;;4956400;28;20509;-73
2022/09/29 03:14:14;;;;;;;2.03;1.30;;;14.30;58.50;;;;;;4964766;28;20461;-74
2022/09/29 03:16:43;;;;;;;1.57;1.40;;;14.30;58.50;;;;;;4963697;28;20487;-75
2022/09/29 03:19:12;;;;;;;1.40;1.17;;;14.30;58.50;;;;;;4968109;28;20953;-73
2022/09/29 03:21:42;;;;;;;0.93;0.90;;;14.30;58.50;;;;;;4951250;28;20477;-73
2022/09/29 03:24:10;;;;;;;2.03;1.33;;;14.20;58.40;;;;;;4969412;28;20595;-74
2022/09/29 03:26:38;;;;;;;1.30;1.20;;;14.20;58.40;;;;;;4968754;28;20536;-72
2022/09/29 03:29:07;;;;;;;1.27;1.17;;;14.30;58.50;;;;;;4953881;28;20537;-73
2022/09/29 03:31:35;;;;;;;2.77;1.03;;;14.30;58.50;;;;;;4965479;28;20573;-73
2022/09/29 03:34:04;;;;;;;1.20;1.10;;;14.20;58.40;;;;;;4978156;28;20866;-73
2022/09/29 03:36:32;;;;;;;1.27;0.90;;;14.20;58.40;;;;;;4967767;28;21064;-73
2022/09/29 03:39:02;;;;;;;1.67;0.97;;;14.20;58.40;;;;;;4976217;28;20852;-73
2022/09/29 03:41:30;;;;;;;1.30;0.83;;;14.20;58.40;;;;;;4970417;28;20517;-72
2022/09/29 03:43:59;;;;;;;1.10;1.00;;;14.20;58.40;;;;;;4949615;28;20517;-74
2022/09/29 03:46:28;;;;;;;1.10;0.90;;;14.20;58.40;;;;;;4966383;28;20492;-73
2022/09/29 03:48:56;;;;;;;1.10;0.80;;;14.20;58.50;;;;;;4969018;28;20460;-74
2022/09/29 03:51:25;;;;;;;1.23;1.13;;;14.20;58.40;;;;;;4970398;28;20447;-71
2022/09/29 03:53:55;;;;;;;1.10;1.00;;;14.20;58.40;;;;;;4972769;28;20484;-74
2022/09/29 03:56:26;;;;;;;1.20;1.00;;;14.20;58.40;;;;;;4973127;28;20539;-73
2022/09/29 03:58:54;;;;;;;1.57;1.30;;;14.20;58.40;;;;;;4961718;28;20847;-74
2022/09/29 04:01:23;;;;;;;5.40;2.00;;;14.20;58.50;;;;;;4938440;29;20486;-74
2022/09/29 04:03:51;;;;;;;2.00;1.40;;;14.20;58.40;;;;;;4951926;28;20466;-74
2022/09/29 04:06:20;;;;;;;1.23;0.90;;;14.20;58.40;;;;;;4968359;28;20863;-73
2022/09/29 04:08:49;;;;;;;1.80;1.43;;;14.20;58.50;;;;;;4967870;28;20540;-73
2022/09/29 04:11:17;;;;;;;1.27;0.80;;;14.20;58.40;;;;;;4982405;28;20450;-74
2022/09/29 04:13:47;;;;;;;1.47;1.37;;;14.20;58.40;;;;;;4984702;28;20462;-74
2022/09/29 04:16:15;;;;;;;1.53;0.90;;;14.20;58.40;;;;;;4968949;28;20868;-74
2022/09/29 04:18:44;;;;;;;1.63;1.20;;;14.20;58.40;;;;;;4968706;28;20450;-69
2022/09/29 04:21:13;;;;;;;2.67;1.10;;;14.20;58.40;;;;;;4960931;28;20478;-68
2022/09/29 04:23:41;;;;;;;1.43;1.00;;;14.10;58.40;;;;;;4968545;28;20442;-68
2022/09/29 04:26:09;;;;;;;1.27;1.17;;;14.10;58.30;;;;;;4960622;28;20896;-68
2022/09/29 04:28:40;;;;;;;1.43;1.30;;;14.10;58.30;;;;;;4960341;28;20661;-69
2022/09/29 04:31:09;;;;;;;1.23;0.97;;;14.10;58.30;;;;;;4962457;28;20466;-69
2022/09/29 04:33:40;;;;;;;0.83;0.77;;;14.10;58.30;;;;;;4965335;28;20500;-68
2022/09/29 04:36:08;;;;;;;1.53;1.10;;;14.10;58.30;;;;;;4960936;28;20470;-66
2022/09/29 04:38:36;;;;;;;1.20;1.10;;;14.10;58.30;;;;;;4967502;28;20521;-68
2022/09/29 04:41:05;;;;;;;2.50;1.30;;;14.10;58.30;;;;;;4960323;28;20520;-67
2022/09/29 04:43:33;;;;;;;2.07;1.97;;;14.10;58.30;;;;;;4955057;28;20450;-68
2022/09/29 04:46:03;;;;;;;1.20;1.07;;;14.10;58.30;;;;;;4960401;28;20493;-65
2022/09/29 04:48:34;;;;;;;1.87;1.30;;;14.10;58.30;;;;;;4967228;28;20448;-68
2022/09/29 04:51:04;;;;;;;1.60;1.17;;;14.10;58.30;;;;;;4959790;28;20576;-69
2022/09/29 04:53:33;;;;;;;2.50;1.30;;;14.10;58.30;;;;;;4966567;28;20942;-68
2022/09/29 04:56:06;;;;;;;2.13;1.20;;;14.10;58.30;;;;;;4964307;28;20954;-68
2022/09/29 04:58:35;;;;;;;1.40;1.20;;;14.10;58.30;;;;;;4967250;28;20524;-68
2022/09/29 05:01:09;;;;;;;2.00;1.10;;;14.10;58.30;;;;;;4967535;28;20470;-67
2022/09/29 05:03:39;;;;;;;1.60;1.50;;;14.00;58.20;;;;;;4967194;28;20442;-68
2022/09/29 05:06:08;;;;;;;1.47;1.17;;;14.10;58.30;;;;;;4960832;28;20903;-67
2022/09/29 05:08:37;;;;;;;2.23;1.67;;;14.10;58.30;;;;;;4967014;28;20465;-68
2022/09/29 05:11:06;;;;;;;1.47;1.00;;;14.10;58.30;;;;;;4961201;28;20548;-68
2022/09/29 05:13:35;;;;;;;1.50;1.30;;;14.10;58.40;;;;;;4965605;28;20477;-69
2022/09/29 05:16:04;;;;;;;1.00;0.90;;;14.00;58.20;;;;;;4958578;28;20515;-68
2022/09/29 05:18:33;;;;;;;1.70;1.33;;;14.00;58.30;;;;;;4968129;28;20442;-68
2022/09/29 05:21:07;;;;;;;1.33;1.10;;;14.00;58.20;;;;;;4967803;28;20831;-69
2022/09/29 05:23:56;;;;;;;1.47;1.10;;;14.00;58.20;;;;;;4964603;28;20479;-69
2022/09/29 05:26:26;;;;;;;1.17;1.07;;;14.00;58.20;;;;;;4967262;28;20571;-68
2022/09/29 05:28:54;;;;;;;1.10;1.00;;;14.00;58.20;;;;;;4967728;28;20456;-68
2022/09/29 05:31:22;;;;;;;2.20;1.07;;;14.00;58.20;;;;;;4963387;28;21021;-69
2022/09/29 05:33:51;;;;;;;1.83;0.90;;;14.00;58.20;;;;;;4962767;28;20469;-67
2022/09/29 05:36:21;;;;;;;1.00;0.80;;;14.00;58.30;;;;;;4956205;28;20821;-66
2022/09/29 05:38:50;;;;;;;1.50;1.00;;;14.00;58.20;;;;;;4966628;28;20448;-67
2022/09/29 05:41:21;;;;;;;1.60;1.00;;;14.00;58.20;;;;;;4966005;28;20862;-67
2022/09/29 05:43:52;;;;;;;1.17;1.07;;;14.00;58.20;;;;;;4967477;28;20437;-69
2022/09/29 05:46:22;;;;;;;1.43;0.87;;;14.00;58.20;;;;;;4956925;28;20497;-68
2022/09/29 05:48:51;;;;;;;1.20;1.10;;;14.00;58.20;;;;;;4965316;28;20463;-69
2022/09/29 05:51:23;;;;;;;1.47;1.37;;;14.00;58.20;;;;;;4976100;28;20444;-67
2022/09/29 05:53:51;;;;;;;1.90;1.27;;;14.00;58.20;;;;;;4942391;28;20467;-68
2022/09/29 05:56:22;;;;;;;1.43;1.33;;;14.00;58.20;;;;;;4954029;28;20461;-69
2022/09/29 05:58:51;;;;;;;0.93;0.80;;;14.00;58.20;;;;;;4966343;28;20450;-69
2022/09/29 06:01:21;;;;;;;1.40;1.30;;;14.00;58.20;;;;;;4967139;28;20554;-68
2022/09/29 06:03:50;;;;;;;2.47;1.30;;;14.00;58.20;;;;;;4967306;28;20445;-69
2022/09/29 06:06:22;;;;;;;1.17;1.07;;;14.00;58.30;;;;;;4965713;28;20477;-66
2022/09/29 06:08:52;;;;;;;1.23;1.13;;;13.90;58.10;;;;;;4968005;28;20460;-66
2022/09/29 06:11:22;;;;;;;1.50;1.13;;;14.00;58.20;;;;;;4970119;28;20524;-68
2022/09/29 06:13:52;;;;;;;1.00;0.90;;;14.00;58.20;;;;;;4970008;28;20496;-68
2022/09/29 06:16:24;;;;;;;2.00;1.27;;;13.90;58.10;;;;;;4968852;28;20977;-67
2022/09/29 06:18:52;;;;;;;2.97;1.17;;;13.90;58.10;;;;;;4970380;28;20452;-68
2022/09/29 06:21:25;;;;;;;2.20;0.90;;;13.90;58.10;;;;;;4963787;28;20478;-68
2022/09/29 06:23:55;;;;;;;1.40;1.23;;;13.90;58.10;;;;;;4967984;28;20543;-67
2022/09/29 06:26:24;;;;;;;1.10;1.00;;;13.90;58.20;;;;;;4968935;28;20473;-66
2022/09/29 06:28:54;;;;;;;2.67;1.30;;;13.90;58.10;;;;;;4964735;28;20481;-66
2022/09/29 06:31:25;;;;;;;1.40;1.30;;;13.90;58.10;;;;;;4969329;28;20461;-66
2022/09/29 06:33:56;;;;;;;1.77;1.23;;;13.90;58.10;;;;;;4967817;28;20475;-67
2022/09/29 06:39:16;;;;;;;1.30;0.80;;;13.90;58.10;;;;;;4964351;28;20768;-67
2022/09/29 06:41:50;;;;;;;1.30;1.20;;;13.90;58.20;;;;;;4969707;28;20900;-66
2022/09/29 06:44:20;;;;;;;1.53;1.27;;;13.90;58.10;;;;;;4965211;28;20788;-67
2022/09/29 06:46:51;;;;;;;1.80;1.20;;;13.80;58.10;;;;;;4967675;28;21039;-68
2022/09/29 06:49:20;;;;;;;1.40;1.17;;;13.90;58.10;;;;;;4970578;28;20484;-68
2022/09/29 06:51:51;;;;;;;1.87;1.47;;;13.90;58.10;;;;;;4976706;28;20560;-66
2022/09/29 06:54:23;;;;;;;1.80;1.30;;;13.90;58.20;;;;;;4969149;28;20841;-66
2022/09/29 06:56:54;;;;;;;1.60;1.27;;;13.90;58.10;;;;;;4968578;28;20483;-66
2022/09/29 06:59:22;;;;;;;1.43;1.33;;;13.90;58.10;;;;;;4969547;28;20914;-67
2022/09/29 07:01:51;;;;;;;1.43;1.20;;;13.90;58.10;;;;;;4961149;28;20548;-68
2022/09/29 07:04:21;;;;;;;1.23;0.97;;;13.90;58.10;;;;;;4969073;28;20447;-69
2022/09/29 07:06:52;;;;;;;1.73;1.50;;;13.90;58.10;;;;;;4960681;28;20539;-69
2022/09/29 07:09:22;;;;;;;1.30;1.20;;;13.90;58.20;;;;;;4967016;28;20446;-68
2022/09/29 07:11:51;;;;;;;2.00;1.20;;;13.90;58.10;;;;;;4968060;28;20471;-67
2022/09/29 07:14:22;;;;;;;1.60;1.00;;;13.90;58.10;;;;;;4952834;28;20585;-67
2022/09/29 07:16:51;;;;;;;1.60;1.23;;;13.90;58.20;;;;;;4968573;28;20485;-67
2022/09/29 07:19:20;;;;;;;4.23;1.40;;;13.90;58.10;;;;;;4966309;28;20511;-68
2022/09/29 07:21:51;;;;;;;1.47;1.20;;;13.90;58.10;;;;;;4968852;28;20455;-67
2022/09/29 07:24:19;;;;;;;1.40;1.27;;;13.90;58.10;;;;;;4968274;28;20440;-66
2022/09/29 07:26:48;;;;;;;1.50;1.33;;;13.90;58.10;;;;;;4968027;28;20500;-67
2022/09/29 07:29:17;;;;;;;1.60;1.10;;;13.90;58.10;;;;;;4970698;28;20437;-69
2022/09/29 07:31:46;;;;;;;1.93;1.20;;;13.90;58.10;;;;;;4967598;28;20474;-67
2022/09/29 07:34:19;;;;;;;2.17;1.00;;;13.90;58.20;;;;;;4947751;28;20470;-65
2022/09/29 07:36:48;;;;;;;2.53;1.40;;;13.90;58.20;;;;;;4969699;28;20480;-66
2022/09/29 07:39:20;;;;;;;1.70;1.60;;;14.00;58.30;;;;;;4950190;28;20591;-67
2022/09/29 07:41:49;;;;;;;1.27;1.17;;;13.90;58.10;;;;;;4984877;28;20495;-67
2022/09/29 07:44:17;;;;;;;2.00;1.40;;;13.90;58.10;;;;;;4961128;28;20950;-67
2022/09/29 07:46:48;;;;;;;1.80;1.70;;;13.90;58.10;;;;;;4965010;28;20503;-69
2022/09/29 07:49:16;;;;;;;8.37;5.97;;;14.00;58.20;;;;;;4967333;28;20442;-67
2022/09/29 07:51:45;;;;;;;6.20;5.60;;;14.10;58.30;;;;;;4961739;28;20838;-67
2022/09/29 07:54:13;;;;;;;6.80;4.97;;;14.10;59.30;;;;;;4967098;28;20962;-68
2022/09/29 07:56:43;;;;;;;4.80;4.00;;;14.00;58.90;;;;;;4966202;28;20516;-66
2022/09/29 07:59:11;;;;;;;3.83;3.53;;;14.00;58.70;;;;;;4968902;28;20851;-68
2022/09/29 08:01:40;;;;;;;3.50;3.20;;;14.00;58.50;;;;;;4970688;28;21012;-66
2022/09/29 08:04:08;;;;;;;4.13;3.73;;;14.00;58.30;;;;;;4985848;28;20441;-67
2022/09/29 08:06:37;;;;;;;4.30;3.20;;;14.00;58.20;;;;;;4968334;28;20497;-68
2022/09/29 08:09:05;;;;;;;2.93;2.63;;;14.00;58.20;;;;;;4968307;28;20544;-68
2022/09/29 08:11:37;;;;;;;3.13;2.80;;;14.00;58.30;;;;;;4959845;28;20552;-66
2022/09/29 08:14:07;;;;;;;3.47;2.10;;;14.00;58.20;;;;;;4976604;28;20454;-66
2022/09/29 08:16:36;;;;;;;2.47;2.27;;;14.00;58.30;;;;;;4968379;28;20509;-66
2022/09/29 08:19:05;;;;;;;3.10;2.70;;;14.00;58.20;;;;;;4953193;28;20441;-68
2022/09/29 08:21:35;;;;;;;4.20;2.67;;;14.00;58.30;;;;;;4966480;28;20484;-66
2022/09/29 08:24:05;;;;;;;3.17;2.70;;;14.00;58.30;;;;;;4960642;28;20864;-67
2022/09/29 08:26:35;;;;;;;3.30;2.70;;;14.00;58.20;;;;;;4960673;28;20561;-65
2022/09/29 08:29:13;;;;;;;3.10;2.23;;;14.00;58.20;;;;;;4968310;28;20440;-67
2022/09/29 08:31:46;;;;;;;2.93;2.20;;;14.00;58.30;;;;;;4969647;23;20494;-69
2022/09/29 08:34:15;;;;;;;2.33;2.13;;;14.10;58.30;;;;;;4942675;29;20443;-68
2022/09/29 08:36:43;;;;;;;3.10;2.07;;;14.10;58.30;;;;;;4931183;28;20562;-68
2022/09/29 08:39:14;;;;;;;2.93;2.10;;;14.10;59.50;;;;;;4942899;28;20533;-68
2022/09/29 08:41:52;;;;;;;3.53;2.10;;;14.10;58.30;;;;;;4948279;29;20447;-69
2022/09/29 08:44:29;;;;;;;2.30;2.10;;;14.10;58.30;;;;;;4939271;29;20474;-69
2022/09/29 08:47:18;;;;;;;1.80;1.70;;;14.10;58.30;;;;;;4935382;28;20533;-69
2022/09/29 08:49:52;;;;;;;3.30;1.80;;;14.10;58.30;;;;;;4939512;29;20429;-68
2022/09/29 08:52:25;;;;;;;2.57;2.10;;;14.10;58.30;;;;;;4936960;29;20573;-68
2022/09/29 08:55:00;;;;;;;2.53;2.00;;;14.10;58.30;;;;;;4931214;29;21040;-68
2022/09/29 08:57:46;;;;;;;3.07;2.20;;;14.10;58.30;;;;;;4955930;28;20548;-69
2022/09/29 09:00:19;;;;;;;2.17;1.93;;;14.10;58.30;;;;;;4947590;29;21094;-68
2022/09/29 09:03:07;;;;;;;2.20;1.50;;;14.10;58.30;;;;;;4937717;28;21002;-69
2022/09/29 09:05:56;;;;;;;1.60;1.50;;;14.10;58.40;;;;;;4931530;29;20807;-68
2022/09/29 09:08:40;;;;;;;2.33;2.13;;;14.10;58.30;;;;;;4944239;28;20447;-68
2022/09/29 09:11:36;;;;;;;2.17;1.80;;;14.10;58.30;;;;;;4931549;29;20873;-68
2022/09/29 09:14:18;;;;;;;1.70;1.33;;;14.10;58.30;;;;;;4930400;29;20432;-68
2022/09/29 09:17:00;;;;;;;2.00;1.40;;;14.10;58.30;;;;;;4940974;28;20494;-68
2022/09/29 09:19:45;;;;;;;1.60;1.50;;;14.10;58.30;;;;;;4938304;29;20442;-68
2022/09/29 09:22:21;;;;;;;2.50;1.77;;;14.10;58.30;;;;;;4935458;28;20471;-68
2022/09/29 09:24:57;;;;;;;1.57;1.20;;;14.10;58.20;;;;;;4944634;28;20484;-68
2022/09/29 09:27:31;;;;;;;1.53;1.40;;;14.10;58.30;;;;;;4934169;28;20510;-68
2022/09/29 09:30:06;;;;;;;3.43;2.30;;;14.10;58.30;;;;;;4940756;29;20447;-69
2022/09/29 09:32:42;;;;;;;1.40;1.17;;;14.10;58.20;;;;;;4945773;28;20484;-68
2022/09/29 09:35:32;;;;;;;2.00;1.20;;;14.10;58.20;;;;;;4947734;28;20499;-69
2022/09/29 09:38:06;;;;;;;2.73;1.43;;;14.10;58.20;;;;;;4935475;28;20481;-68
2022/09/29 09:40:40;;;;;;;2.20;1.50;;;14.10;58.10;;;;;;4944132;29;20512;-68
2022/09/29 09:43:17;;;;;;;2.13;1.93;;;14.10;58.80;;;;;;4937404;29;20456;-68
2022/09/29 09:45:51;;;;;;;2.00;1.80;;;14.10;58.30;;;;;;4939039;28;20551;-69
2022/09/29 09:48:30;;;;;;;3.00;1.70;;;14.10;58.30;;;;;;4938603;29;20499;-69
2022/09/29 09:51:01;;;;;;;4.03;1.60;;;14.10;58.20;;;;;;4949967;29;20439;-68
2022/09/29 09:53:37;;;;;;;2.07;1.67;;;14.10;58.20;;;;;;4937149;29;20479;-68
2022/09/29 09:56:16;;;;;;;5.30;2.47;;;14.10;58.00;;;;;;4920777;29;20500;-68
2022/09/29 09:59:08;;;;;;;1.50;1.40;;;14.20;57.90;;;;;;4934472;29;20430;-68
2022/09/29 10:01:37;;;;;;;1.50;1.23;;;14.10;57.90;;;;;;4936914;28;20486;-68
2022/09/29 10:04:11;;;;;;;1.60;1.20;;;14.10;58.00;;;;;;4964269;28;20476;-68
2022/09/29 10:06:40;;;;;;;2.03;1.57;;;14.10;58.00;;;;;;4940522;29;20549;-68
2022/09/29 10:09:14;;;;;;;3.00;1.80;;;14.10;58.10;;;;;;4946313;29;20454;-68
2022/09/29 10:11:43;;;;;;;1.50;1.40;;;14.10;58.10;;;;;;4940030;29;20462;-68
2022/09/29 10:14:15;;;;;;;1.40;1.17;;;14.10;58.20;;;;;;4934400;29;20501;-68
2022/09/29 10:16:48;;;;;;;2.10;1.53;;;14.10;58.10;;;;;;4943495;29;20532;-68
2022/09/29 10:19:23;;;;;;;1.80;1.30;;;14.10;58.10;;;;;;4935350;28;20833;-68
2022/09/29 10:21:52;;;;;;;2.00;1.50;;;14.10;58.20;;;;;;4940711;29;20574;-68
2022/09/29 10:24:25;;;;;;;1.80;1.50;;;14.10;58.30;;;;;;4941353;28;20473;-68
2022/09/29 10:26:58;;;;;;;3.03;1.37;;;14.10;58.30;;;;;;4940685;29;20525;-72
2022/09/29 10:29:33;;;;;;;1.47;1.37;;;14.10;58.30;;;;;;4943828;29;20441;-72
2022/09/29 10:32:06;;;;;;;2.50;1.30;;;14.10;58.30;;;;;;4941969;28;20476;-72
2022/09/29 10:34:38;;;;;;;1.03;1.00;;;14.10;58.40;;;;;;4949079;28;20792;-72
2022/09/29 10:37:22;;;;;;;1.30;1.20;;;14.10;59.50;;;;;;4931218;29;20490;-72
2022/09/29 10:39:51;;;;;;;1.37;1.27;;;14.10;58.40;;;;;;4943276;28;20451;-72
2022/09/29 10:42:26;;;;;;;1.20;1.03;;;14.10;58.30;;;;;;4936748;29;20686;-72
2022/09/29 10:45:02;;;;;;;2.30;1.13;;;14.10;58.30;;;;;;4942423;28;20545;-72
2022/09/29 10:47:32;;;;;;;1.43;1.23;;;14.10;58.30;;;;;;4945383;28;20567;-72
2022/09/29 10:50:14;;;;;;;2.20;1.20;;;14.10;58.30;;;;;;4928545;29;20454;-72
2022/09/29 10:52:45;;;;;;;2.90;1.57;;;14.10;58.30;;;;;;4935934;28;20529;-72
2022/09/29 10:55:20;;;;;;;2.77;1.37;;;14.10;58.30;;;;;;4925681;29;21028;-72
2022/09/29 10:57:49;;;;;;;2.20;2.00;;;14.10;58.30;;;;;;4941167;28;20945;-71
2022/09/29 11:00:31;;;;;;;5.90;2.10;;;14.10;58.30;;;;;;4947561;29;20443;-72
2022/09/29 11:03:08;;;;;;;8.53;2.77;;;14.10;58.30;;;;;;4935692;28;20233;-72
2022/09/29 11:05:39;;;;;;;1.80;1.50;;;14.10;58.30;;;;;;4945884;29;20478;-72
2022/09/29 11:08:13;;;;;;;3.77;1.60;;;14.10;58.30;;;;;;4949457;28;20769;-72
2022/09/29 11:10:46;;;;;;;2.50;1.50;;;14.00;58.20;;;;;;4942842;29;20851;-71
2022/09/29 11:13:38;;;;;;;1.57;1.47;;;14.10;58.40;;;;;;4936319;29;20450;-73
2022/09/29 11:16:15;;;;;;;2.53;1.50;;;14.00;58.20;;;;;;4939640;29;20470;-71
2022/09/29 11:18:46;;;;;;;2.07;1.30;;;14.00;58.30;;;;;;4939020;28;20497;-71
2022/09/29 11:21:55;;;;;;;4.10;1.73;;;14.00;58.20;;;;;;4946966;28;20470;-72
2022/09/29 11:24:36;;;;;;;1.93;1.60;;;14.10;58.30;;;;;;4939593;29;20472;-73
2022/09/29 11:27:15;;;;;;;1.70;1.00;;;14.00;58.20;;;;;;4935039;28;20544;-73
2022/09/29 11:29:50;;;;;;;3.53;1.20;;;14.00;58.20;;;;;;4932568;29;20470;-71
2022/09/29 11:32:31;;;;;;;2.17;1.60;;;14.00;58.20;;;;;;4942643;28;20492;-71
2022/09/29 11:35:19;;;;;;;1.60;1.30;;;14.00;58.20;;;;;;4923439;29;20454;-70
2022/09/29 11:38:06;;;;;;;1.37;1.20;;;14.00;58.20;;;;;;4922232;28;20501;-72
2022/09/29 11:40:46;;;;;;;2.70;1.50;;;14.00;58.20;;;;;;4941923;29;20443;-71
2022/09/29 11:43:31;;;;;;;1.33;1.07;;;14.00;58.20;;;;;;4941090;29;20441;-72
2022/09/29 11:46:11;;;;;;;1.60;1.43;;;14.00;58.20;;;;;;4946832;29;20455;-73
2022/09/29 11:49:11;;;;;;;1.13;1.03;;;14.00;58.20;;;;;;4944264;28;20455;-72
2022/09/29 11:51:54;;;;;;;1.90;1.30;;;14.00;58.20;;;;;;4946113;29;20544;-72
2022/09/29 11:54:43;;;;;;;3.07;1.20;;;14.00;58.30;;;;;;4941376;28;20466;-72
2022/09/29 11:57:19;;;;;;;1.40;1.17;;;14.00;58.20;;;;;;4930863;29;20478;-72
2022/09/29 12:00:06;;;;;;;1.50;1.10;;;14.00;58.30;;;;;;4934611;29;20450;-72
2022/09/29 12:03:09;;;;;;;1.77;1.40;;;14.00;58.20;;;;;;4935721;28;20549;-72
2022/09/29 12:05:54;;;;;;;1.43;1.03;;;14.00;58.20;;;;;;4939927;29;20463;-72
2022/09/29 12:08:39;;;;;;;2.50;1.00;;;14.00;58.20;;;;;;4945865;28;20451;-73
2022/09/29 12:11:16;;;;;;;1.30;1.00;;;14.00;58.20;;;;;;4951123;28;20529;-72
2022/09/29 12:14:13;;;;;;;1.10;1.00;;;14.00;58.20;;;;;;4955323;28;20435;-72
2022/09/29 12:16:51;;;;;;;1.50;1.20;;;14.00;58.30;;;;;;4938500;28;20478;-71
2022/09/29 12:19:23;;;;;;;2.70;1.67;;;14.00;58.20;;;;;;4935083;29;20505;-73
2022/09/29 12:21:54;;;;;;;1.30;1.20;;;14.00;58.30;;;;;;4939742;29;20471;-72
2022/09/29 12:24:37;;;;;;;1.90;1.20;;;14.00;58.20;;;;;;4925259;29;20531;-72
2022/09/29 12:27:14;;;;;;;1.53;1.40;;;14.00;58.30;;;;;;4938422;28;20593;-72
2022/09/29 12:29:48;;;;;;;1.57;1.20;;;14.00;58.20;;;;;;4940117;29;20444;-72
2022/09/29 12:32:21;;;;;;;1.40;1.30;;;14.00;58.20;;;;;;4941471;28;20483;-72
2022/09/29 12:34:54;;;;;;;1.17;1.00;;;14.00;58.20;;;;;;4939142;29;20447;-72
2022/09/29 12:37:29;;;;;;;1.20;1.00;;;14.00;58.20;;;;;;4937872;29;20479;-73
2022/09/29 12:40:05;;;;;;;1.20;1.10;;;14.00;58.30;;;;;;4938195;28;20495;-73
2022/09/29 12:42:55;;;;;;;1.30;1.10;;;14.00;58.30;;;;;;4944063;29;20514;-73
2022/09/29 12:45:28;;;;;;;1.30;1.20;;;14.00;58.20;;;;;;4941072;29;20447;-73
2022/09/29 12:48:17;;;;;;;1.93;0.97;;;14.00;58.20;;;;;;4933363;29;20493;-73
2022/09/29 12:50:52;;;;;;;0.70;0.70;;;14.00;58.20;;;;;;4947699;29;20447;-72
2022/09/29 12:53:26;;;;;;;1.63;1.33;;;14.10;58.30;;;;;;4940218;28;20970;-73
2022/09/29 12:55:58;;;;;;;1.67;1.00;;;14.00;58.20;;;;;;4947314;28;20818;-72
2022/09/29 12:58:37;;;;;;;1.40;1.10;;;14.10;58.30;;;;;;4941016;29;20844;-72
2022/09/29 13:01:23;;;;;;;1.47;1.27;;;14.10;58.30;;;;;;4944081;29;20490;-72
2022/09/29 13:04:26;;;;;;;0.80;0.80;;;14.10;58.30;;;;;;4939425;28;20537;-73
2022/09/29 13:07:30;;;;;;;1.47;1.17;;;14.00;58.20;;;;;;4938790;29;20501;-72
2022/09/29 13:10:21;;;;;;;1.00;0.90;;;14.00;58.20;;;;;;4938933;28;20472;-72
2022/09/29 13:13:10;;;;;;;1.00;0.80;;;14.10;58.30;;;;;;4948159;28;20478;-72
2022/09/29 13:15:55;;;;;;;1.07;0.97;;;14.10;58.30;;;;;;4940557;28;20529;-72
2022/09/29 13:18:49;;;;;;;1.30;1.00;;;14.10;58.30;;;;;;4946325;29;20467;-71
2022/09/29 13:21:44;;;;;;;3.37;1.27;;;14.00;58.20;;;;;;4934589;28;20477;-72
2022/09/29 13:24:29;;;;;;;1.03;0.90;;;14.00;58.30;;;;;;4937586;28;20514;-73
2022/09/29 13:27:25;;;;;;;1.20;1.10;;;14.10;58.30;;;;;;4928688;29;20982;-73